createdAt,value
2016-09-13T00:00:23.246Z,0
2016-09-13T00:01:34.248Z,0
2016-09-13T00:02:45.248Z,0
2016-09-13T00:03:56.252Z,0
2016-09-13T00:05:07.259Z,0
2016-09-13T00:06:18.262Z,0
2016-09-13T00:07:29.262Z,0
2016-09-13T00:08:40.267Z,0
2016-09-13T00:09:51.273Z,0
2016-09-13T00:11:02.280Z,0
2016-09-13T00:12:13.286Z,0
2016-09-13T00:13:24.489Z,0
2016-09-13T00:14:35.490Z,0
2016-09-13T00:15:46.493Z,0
2016-09-13T00:16:57.697Z,0
2016-09-13T00:18:08.700Z,0
2016-09-13T00:19:19.907Z,0
2016-09-13T00:20:31.115Z,0
2016-09-13T00:21:42.119Z,0
2016-09-13T00:22:53.128Z,0
2016-09-13T00:24:04.131Z,0
2016-09-13T00:25:15.338Z,0
2016-09-13T00:26:26.552Z,0
2016-09-13T00:27:37.760Z,0
2016-09-13T00:28:48.967Z,0
2016-09-13T00:29:59.968Z,0
2016-09-13T00:31:10.985Z,0
2016-09-13T00:32:21.983Z,0
2016-09-13T00:33:32.980Z,0
2016-09-13T00:34:43.985Z,0
2016-09-13T00:35:54.987Z,0
2016-09-13T00:37:06.391Z,0
2016-09-13T00:38:17.398Z,0
2016-09-13T00:39:28.399Z,0
2016-09-13T00:40:39.406Z,0
2016-09-13T00:41:50.414Z,0
2016-09-13T00:43:01.482Z,0
2016-09-13T00:44:12.694Z,0
2016-09-13T00:45:23.701Z,0
2016-09-13T00:46:34.696Z,0
2016-09-13T00:47:45.700Z,0
2016-09-13T00:48:56.700Z,0
2016-09-13T00:50:07.721Z,0
2016-09-13T00:51:18.730Z,0
2016-09-13T00:52:29.737Z,0
2016-09-13T00:53:40.736Z,0
2016-09-13T00:54:51.741Z,0
2016-09-13T00:56:02.742Z,0
2016-09-13T00:57:13.755Z,0
2016-09-13T00:58:24.758Z,0
2016-09-13T00:59:35.964Z,0
2016-09-13T01:00:47.166Z,0
2016-09-13T01:01:58.161Z,0
2016-09-13T01:03:09.158Z,0
2016-09-13T01:04:20.170Z,0
2016-09-13T01:05:31.173Z,0
2016-09-13T01:06:42.175Z,0
2016-09-13T01:07:53.175Z,0
2016-09-13T01:09:04.182Z,0
2016-09-13T01:10:15.184Z,0
2016-09-13T01:11:26.386Z,0
2016-09-13T01:12:37.400Z,0
2016-09-13T01:13:48.420Z,0
2016-09-13T01:14:59.426Z,0
2016-09-13T01:16:10.426Z,0
2016-09-13T01:17:21.827Z,0
2016-09-13T01:18:32.834Z,0
2016-09-13T01:19:44.243Z,0
2016-09-13T01:20:55.251Z,0
2016-09-13T01:22:06.459Z,0
2016-09-13T01:23:17.466Z,0
2016-09-13T01:24:28.470Z,0
2016-09-13T01:25:39.669Z,0
2016-09-13T01:26:50.673Z,0
2016-09-13T01:28:01.675Z,0
2016-09-13T01:29:12.681Z,0
2016-09-13T01:30:23.683Z,0
2016-09-13T01:31:34.887Z,0
2016-09-13T01:32:45.906Z,0
2016-09-13T01:33:56.910Z,0
2016-09-13T01:35:07.908Z,0
2016-09-13T01:36:19.124Z,0
2016-09-13T01:37:30.126Z,0
2016-09-13T01:38:41.128Z,0
2016-09-13T01:39:52.128Z,0
2016-09-13T01:41:03.129Z,0
2016-09-13T01:42:14.133Z,0
2016-09-13T01:43:25.194Z,0
2016-09-13T01:44:36.201Z,0
2016-09-13T01:45:47.217Z,0
2016-09-13T01:46:58.220Z,0
2016-09-13T01:48:09.250Z,0
2016-09-13T01:49:20.260Z,0
2016-09-13T01:50:31.873Z,0
2016-09-13T01:51:42.894Z,0
2016-09-13T01:52:53.900Z,0
2016-09-13T01:54:05.113Z,0
2016-09-13T01:55:16.318Z,0
2016-09-13T01:56:27.327Z,0
2016-09-13T01:57:38.539Z,0
2016-09-13T01:58:49.545Z,0
2016-09-13T02:00:00.551Z,0
2016-09-13T02:01:11.758Z,0
2016-09-13T02:02:22.757Z,0
2016-09-13T02:03:33.767Z,0
2016-09-13T02:04:44.772Z,0
2016-09-13T02:05:55.973Z,0
2016-09-13T02:07:06.975Z,0
2016-09-13T02:08:17.982Z,0
2016-09-13T02:09:29.003Z,0
2016-09-13T02:10:40.013Z,0
2016-09-13T02:11:51.019Z,0
2016-09-13T02:13:02.225Z,0
2016-09-13T02:14:13.435Z,0
2016-09-13T02:15:24.430Z,0
2016-09-13T02:16:35.441Z,0
2016-09-13T02:17:46.443Z,0
2016-09-13T02:18:57.448Z,0
2016-09-13T02:20:08.463Z,0
2016-09-13T02:21:19.467Z,0
2016-09-13T02:22:30.473Z,0
2016-09-13T02:23:41.485Z,0
2016-09-13T02:24:52.490Z,0
2016-09-13T02:26:03.498Z,0
2016-09-13T02:27:14.700Z,0
2016-09-13T02:28:25.700Z,0
2016-09-13T02:29:36.703Z,0
2016-09-13T02:30:47.696Z,0
2016-09-13T02:31:58.698Z,0
2016-09-13T02:33:09.699Z,0
2016-09-13T02:34:20.717Z,0
2016-09-13T02:35:31.714Z,0
2016-09-13T02:36:42.912Z,0
2016-09-13T02:37:53.916Z,0
2016-09-13T02:39:04.923Z,0
2016-09-13T02:40:15.928Z,0
2016-09-13T02:41:26.932Z,0
2016-09-13T02:42:37.943Z,0
2016-09-13T02:43:48.996Z,0
2016-09-13T02:45:00.006Z,0
2016-09-13T02:46:11.005Z,0
2016-09-13T02:47:22.014Z,0
2016-09-13T02:48:33.013Z,0
2016-09-13T02:49:44.015Z,0
2016-09-13T02:50:55.017Z,0
2016-09-13T02:52:06.024Z,0
2016-09-13T02:53:17.040Z,0
2016-09-13T02:54:28.239Z,0
2016-09-13T02:55:39.273Z,0
2016-09-13T02:56:50.280Z,0
2016-09-13T02:58:01.297Z,0
2016-09-13T02:59:12.501Z,0
2016-09-13T03:00:23.702Z,0
2016-09-13T03:01:34.693Z,0
2016-09-13T03:02:46.095Z,0
2016-09-13T03:03:57.095Z,0
2016-09-13T03:05:08.113Z,0
2016-09-13T03:06:19.120Z,0
2016-09-13T03:07:30.122Z,0
2016-09-13T03:08:41.122Z,0
2016-09-13T03:09:52.129Z,0
2016-09-13T03:11:03.140Z,0
2016-09-13T03:12:14.358Z,0
2016-09-13T03:13:25.360Z,0
2016-09-13T03:14:36.367Z,0
2016-09-13T03:15:47.368Z,0
2016-09-13T03:16:58.366Z,0
2016-09-13T03:18:09.370Z,0
2016-09-13T03:19:20.375Z,0
2016-09-13T03:20:31.577Z,0
2016-09-13T03:21:42.588Z,0
2016-09-13T03:22:53.586Z,0
2016-09-13T03:24:04.593Z,0
2016-09-13T03:25:15.598Z,0
2016-09-13T03:26:26.597Z,0
2016-09-13T03:27:37.609Z,0
2016-09-13T03:28:48.610Z,0
2016-09-13T03:29:59.821Z,0
2016-09-13T03:31:10.825Z,0
2016-09-13T03:32:21.831Z,0
2016-09-13T03:33:32.849Z,0
2016-09-13T03:34:44.055Z,0
2016-09-13T03:35:55.261Z,0
2016-09-13T03:37:06.269Z,0
2016-09-13T03:38:17.263Z,0
2016-09-13T03:39:28.274Z,0
2016-09-13T03:40:39.279Z,0
2016-09-13T03:41:50.270Z,0
2016-09-13T03:43:01.273Z,0
2016-09-13T03:44:12.325Z,0
2016-09-13T03:45:23.346Z,0
2016-09-13T03:46:34.359Z,0
2016-09-13T03:47:45.362Z,0
2016-09-13T03:48:56.366Z,0
2016-09-13T03:50:07.368Z,0
2016-09-13T03:51:18.374Z,0
2016-09-13T03:52:29.373Z,0
2016-09-13T03:53:40.575Z,0
2016-09-13T03:54:51.577Z,0
2016-09-13T03:56:02.578Z,0
2016-09-13T03:57:13.578Z,0
2016-09-13T03:58:24.588Z,0
2016-09-13T03:59:35.583Z,0
2016-09-13T04:00:46.588Z,0
2016-09-13T04:01:57.796Z,0
2016-09-13T04:03:08.797Z,0
2016-09-13T04:04:19.793Z,0
2016-09-13T04:05:30.796Z,0
2016-09-13T04:06:41.805Z,0
2016-09-13T04:07:52.804Z,0
2016-09-13T04:09:03.804Z,0
2016-09-13T04:10:14.813Z,0
2016-09-13T04:11:25.806Z,0
2016-09-13T04:12:36.805Z,0
2016-09-13T04:13:47.813Z,0
2016-09-13T04:14:58.816Z,0
2016-09-13T04:16:10.024Z,0
2016-09-13T04:17:21.030Z,0
2016-09-13T04:18:32.434Z,0
2016-09-13T04:19:43.440Z,0
2016-09-13T04:20:54.643Z,0
2016-09-13T04:22:05.646Z,0
2016-09-13T04:23:16.644Z,0
2016-09-13T04:24:27.641Z,0
2016-09-13T04:25:38.640Z,0
2016-09-13T04:26:49.656Z,4
2016-09-13T04:28:00.855Z,4
2016-09-13T04:29:11.859Z,0
2016-09-13T04:30:22.857Z,4
2016-09-13T04:31:33.862Z,4
2016-09-13T04:32:44.861Z,8
2016-09-13T04:33:56.061Z,8
2016-09-13T04:35:07.062Z,4
2016-09-13T04:36:18.061Z,8
2016-09-13T04:37:29.463Z,8
2016-09-13T04:38:40.465Z,12
2016-09-13T04:39:51.673Z,16
2016-09-13T04:41:02.676Z,16
2016-09-13T04:42:13.678Z,24
2016-09-13T04:43:24.884Z,28
2016-09-13T04:44:35.930Z,28
2016-09-13T04:45:47.133Z,36
2016-09-13T04:46:58.138Z,44
2016-09-13T04:48:09.142Z,52
2016-09-13T04:49:20.156Z,60
2016-09-13T04:50:31.163Z,68
2016-09-13T04:51:42.156Z,80
2016-09-13T04:52:53.150Z,92
2016-09-13T04:54:04.151Z,104
2016-09-13T04:55:15.151Z,120
2016-09-13T04:56:26.151Z,132
2016-09-13T04:57:37.153Z,152
2016-09-13T04:58:48.156Z,168
2016-09-13T04:59:59.155Z,188
2016-09-13T05:01:10.161Z,208
2016-09-13T05:02:21.167Z,232
2016-09-13T05:03:32.159Z,256
2016-09-13T05:04:43.176Z,280
2016-09-13T05:05:54.178Z,308
2016-09-13T05:07:05.175Z,336
2016-09-13T05:08:16.177Z,364
2016-09-13T05:09:27.177Z,396
2016-09-13T05:10:38.179Z,436
2016-09-13T05:11:49.189Z,468
2016-09-13T05:13:00.174Z,512
2016-09-13T05:14:11.176Z,556
2016-09-13T05:15:22.186Z,596
2016-09-13T05:16:33.184Z,644
2016-09-13T05:17:44.386Z,700
2016-09-13T05:18:55.375Z,748
2016-09-13T05:20:06.784Z,804
2016-09-13T05:21:17.786Z,856
2016-09-13T05:22:28.797Z,912
2016-09-13T05:23:39.801Z,972
2016-09-13T05:24:50.796Z,1032
2016-09-13T05:26:01.851Z,1096
2016-09-13T05:27:13.049Z,1164
2016-09-13T05:28:24.070Z,1228
2016-09-13T05:29:35.069Z,1296
2016-09-13T05:30:46.073Z,1360
2016-09-13T05:31:57.083Z,1428
2016-09-13T05:33:08.085Z,1500
2016-09-13T05:34:19.088Z,1568
2016-09-13T05:35:30.107Z,1636
2016-09-13T05:36:41.104Z,1720
2016-09-13T05:37:52.117Z,1784
2016-09-13T05:39:03.117Z,1860
2016-09-13T05:40:14.120Z,1932
2016-09-13T05:41:25.323Z,2012
2016-09-13T05:42:36.331Z,2088
2016-09-13T05:43:47.339Z,2164
2016-09-13T05:44:58.591Z,2244
2016-09-13T05:46:09.593Z,2324
2016-09-13T05:47:20.597Z,2412
2016-09-13T05:48:31.796Z,2500
2016-09-13T05:49:42.800Z,2588
2016-09-13T05:50:53.801Z,2676
2016-09-13T05:52:04.807Z,2768
2016-09-13T05:53:15.813Z,2860
2016-09-13T05:54:26.826Z,2956
2016-09-13T05:55:37.826Z,3048
2016-09-13T05:56:48.829Z,3152
2016-09-13T05:57:59.837Z,3240
2016-09-13T05:59:10.841Z,3340
2016-09-13T06:00:22.041Z,3432
2016-09-13T06:01:33.244Z,3532
2016-09-13T06:02:44.250Z,3640
2016-09-13T06:03:55.263Z,3744
2016-09-13T06:05:06.263Z,3840
2016-09-13T06:06:17.265Z,3948
2016-09-13T06:07:28.273Z,4060
2016-09-13T06:08:39.267Z,4160
2016-09-13T06:09:50.282Z,4272
2016-09-13T06:11:01.284Z,4380
2016-09-13T06:12:12.501Z,4488
2016-09-13T06:13:23.503Z,4600
2016-09-13T06:14:34.510Z,4708
2016-09-13T06:15:45.514Z,4816
2016-09-13T06:16:56.516Z,4912
2016-09-13T06:18:07.526Z,5004
2016-09-13T06:19:18.522Z,5088
2016-09-13T06:20:29.531Z,5172
2016-09-13T06:21:40.533Z,5268
2016-09-13T06:22:51.538Z,5328
2016-09-13T06:24:02.540Z,5412
2016-09-13T06:25:13.549Z,5504
2016-09-13T06:26:24.553Z,5588
2016-09-13T06:27:35.574Z,5688
2016-09-13T06:28:46.594Z,5800
2016-09-13T06:29:57.806Z,5912
2016-09-13T06:31:08.801Z,6028
2016-09-13T06:32:19.794Z,6152
2016-09-13T06:33:30.790Z,6276
2016-09-13T06:34:41.997Z,6408
2016-09-13T06:35:53.001Z,6548
2016-09-13T06:37:04.002Z,6680
2016-09-13T06:38:15.003Z,6808
2016-09-13T06:39:26.009Z,7072
2016-09-13T06:40:37.211Z,7172
2016-09-13T06:41:48.209Z,10952
2016-09-13T06:42:59.206Z,16320
2016-09-13T06:44:10.214Z,28896
2016-09-13T06:45:21.270Z,38432
2016-09-13T06:46:32.290Z,40256
2016-09-13T06:47:43.289Z,41568
2016-09-13T06:48:54.293Z,42272
2016-09-13T06:50:05.301Z,42464
2016-09-13T06:51:16.317Z,42336
2016-09-13T06:52:27.365Z,42400
2016-09-13T06:53:38.578Z,42752
2016-09-13T06:54:49.586Z,43136
2016-09-13T06:56:00.799Z,43520
2016-09-13T06:57:11.812Z,43680
2016-09-13T06:58:22.819Z,43456
2016-09-13T06:59:33.838Z,43296
2016-09-13T07:00:44.858Z,44960
2016-09-13T07:01:55.872Z,47136
2016-09-13T07:03:06.877Z,48608
2016-09-13T07:04:17.885Z,48512
2016-09-13T07:05:28.898Z,48736
2016-09-13T07:06:39.913Z,48576
2016-09-13T07:07:50.927Z,47360
2016-09-13T07:09:01.946Z,47360
2016-09-13T07:10:12.967Z,48864
2016-09-13T07:11:23.976Z,51104
2016-09-13T07:12:34.985Z,51072
2016-09-13T07:13:45.995Z,50336
2016-09-13T07:14:57.012Z,50944
2016-09-13T07:16:08.253Z,34464
2016-09-13T07:17:19.273Z,20896
2016-09-13T07:18:30.288Z,24832
2016-09-13T07:19:41.307Z,23712
2016-09-13T07:20:52.325Z,48064
2016-09-13T07:22:03.545Z,55808
2016-09-13T07:23:14.772Z,57408
2016-09-13T07:24:25.795Z,56352
2016-09-13T07:25:36.814Z,55008
2016-09-13T07:26:48.233Z,54624
2016-09-13T07:27:59.250Z,56064
2016-09-13T07:29:10.264Z,56576
2016-09-13T07:30:21.307Z,58336
2016-09-13T07:31:32.531Z,57376
2016-09-13T07:32:43.752Z,57088
2016-09-13T07:33:54.774Z,57408
2016-09-13T07:35:05.791Z,58272
2016-09-13T07:36:16.809Z,59456
2016-09-13T07:37:27.827Z,60608
2016-09-13T07:38:38.841Z,59904
2016-09-13T07:39:50.056Z,59360
2016-09-13T07:41:01.485Z,60000
2016-09-13T07:42:12.708Z,60352
2016-09-13T07:43:23.728Z,59872
2016-09-13T07:44:34.750Z,58592
2016-09-13T07:45:46.222Z,56640
2016-09-13T07:46:57.251Z,56416
2016-09-13T07:48:08.279Z,56832
2016-09-13T07:49:19.310Z,59648
2016-09-13T07:50:30.338Z,60704
2016-09-13T07:51:41.360Z,60192
2016-09-13T07:52:52.583Z,60352
2016-09-13T07:54:03.608Z,61056
2016-09-13T07:55:14.628Z,61760
2016-09-13T07:56:25.848Z,62912
2016-09-13T07:57:36.893Z,62144
2016-09-13T07:58:47.919Z,61792
2016-09-13T07:59:58.944Z,62272
2016-09-13T08:01:10.167Z,61344
2016-09-13T08:02:21.191Z,61728
2016-09-13T08:03:32.426Z,63072
2016-09-13T08:04:43.445Z,62144
2016-09-13T08:05:54.486Z,61312
2016-09-13T08:07:05.504Z,62016
2016-09-13T08:08:16.535Z,62944
2016-09-13T08:09:27.556Z,63360
2016-09-13T08:10:38.791Z,63808
2016-09-13T08:11:50.027Z,64512
2016-09-13T08:13:01.069Z,65568
2016-09-13T08:14:12.098Z,65184
2016-09-13T08:15:23.127Z,64608
2016-09-13T08:16:34.344Z,64448
2016-09-13T08:17:45.375Z,64928
2016-09-13T08:18:56.399Z,63712
2016-09-13T08:20:07.435Z,62816
2016-09-13T08:21:18.652Z,63936
2016-09-13T08:22:29.680Z,66112
2016-09-13T08:23:40.715Z,66496
2016-09-13T08:24:51.738Z,66432
2016-09-13T08:26:02.767Z,68032
2016-09-13T08:27:13.790Z,69376
2016-09-13T08:28:24.811Z,70560
2016-09-13T08:29:35.831Z,70816
2016-09-13T08:30:46.860Z,71392
2016-09-13T08:31:57.878Z,69408
2016-09-13T08:33:08.906Z,66976
2016-09-13T08:34:19.933Z,67552
2016-09-13T08:35:30.969Z,69088
2016-09-13T08:36:42.002Z,68896
2016-09-13T08:37:53.026Z,69152
2016-09-13T08:39:04.056Z,68512
2016-09-13T08:40:15.282Z,67648
2016-09-13T08:41:26.310Z,67040
2016-09-13T08:42:37.340Z,66208
2016-09-13T08:43:48.372Z,67232
2016-09-13T08:44:59.400Z,68288
2016-09-13T08:46:10.488Z,69152
2016-09-13T08:47:21.520Z,70656
2016-09-13T08:48:32.560Z,73664
2016-09-13T08:49:43.592Z,73216
2016-09-13T08:50:55.019Z,72864
2016-09-13T08:52:06.250Z,72000
2016-09-13T08:53:17.283Z,70720
2016-09-13T08:54:28.313Z,71552
2016-09-13T08:55:39.352Z,72064
2016-09-13T08:56:50.386Z,71520
2016-09-13T08:58:01.622Z,69824
2016-09-13T08:59:12.855Z,68288
2016-09-13T09:00:23.883Z,66176
2016-09-13T09:01:34.901Z,65952
2016-09-13T09:02:45.927Z,64960
2016-09-13T09:03:56.953Z,66336
2016-09-13T09:05:07.987Z,65568
2016-09-13T09:06:19.216Z,65600
2016-09-13T09:07:30.453Z,67040
2016-09-13T09:08:41.673Z,65952
2016-09-13T09:09:52.705Z,67136
2016-09-13T09:11:03.748Z,67680
2016-09-13T09:12:14.778Z,67136
2016-09-13T09:13:25.796Z,67040
2016-09-13T09:14:36.830Z,66400
2016-09-13T09:15:47.866Z,66432
2016-09-13T09:16:59.099Z,68512
2016-09-13T09:18:10.346Z,68800
2016-09-13T09:19:21.575Z,67584
2016-09-13T09:20:32.812Z,68320
2016-09-13T09:21:43.839Z,67296
2016-09-13T09:22:54.867Z,65664
2016-09-13T09:24:05.894Z,64128
2016-09-13T09:25:16.918Z,63584
2016-09-13T09:26:27.943Z,64672
2016-09-13T09:27:38.987Z,66816
2016-09-13T09:28:50.216Z,68288
2016-09-13T09:30:01.241Z,70656
2016-09-13T09:31:12.272Z,72480
2016-09-13T09:32:23.298Z,73920
2016-09-13T09:33:34.338Z,75840
2016-09-13T09:34:45.370Z,72928
2016-09-13T09:35:56.394Z,69888
2016-09-13T09:37:07.429Z,70656
2016-09-13T09:38:18.451Z,70240
2016-09-13T09:39:29.478Z,69632
2016-09-13T09:40:40.511Z,70304
2016-09-13T09:41:51.530Z,69568
2016-09-13T09:43:02.551Z,70368
2016-09-13T09:44:13.580Z,72000
2016-09-13T09:45:24.601Z,72224
2016-09-13T09:46:35.687Z,69792
2016-09-13T09:47:46.718Z,69920
2016-09-13T09:48:57.743Z,71232
2016-09-13T09:50:08.766Z,73024
2016-09-13T09:51:19.794Z,73376
2016-09-13T09:52:30.827Z,72352
2016-09-13T09:53:41.853Z,71008
2016-09-13T09:54:52.878Z,70176
2016-09-13T09:56:03.907Z,70272
2016-09-13T09:57:14.938Z,70432
2016-09-13T09:58:25.979Z,71136
2016-09-13T09:59:37.005Z,71776
2016-09-13T10:00:48.039Z,72448
2016-09-13T10:01:59.054Z,72864
2016-09-13T10:03:10.089Z,71648
2016-09-13T10:04:21.114Z,70400
2016-09-13T10:05:32.143Z,69792
2016-09-13T10:06:43.176Z,66272
2016-09-13T10:07:54.221Z,64640
2016-09-13T10:09:05.266Z,66112
2016-09-13T10:10:16.289Z,67808
2016-09-13T10:11:27.324Z,64256
2016-09-13T10:12:38.346Z,62688
2016-09-13T10:13:49.375Z,67392
2016-09-13T10:15:00.400Z,65632
2016-09-13T10:16:11.427Z,61344
2016-09-13T10:17:22.671Z,62944
2016-09-13T10:18:33.696Z,64352
2016-09-13T10:19:44.720Z,59936
2016-09-13T10:20:55.754Z,57760
2016-09-13T10:22:06.780Z,61024
2016-09-13T10:23:17.799Z,61120
2016-09-13T10:24:28.853Z,55552
2016-09-13T10:25:39.881Z,52064
2016-09-13T10:26:50.914Z,53408
2016-09-13T10:28:01.941Z,56320
2016-09-13T10:29:13.167Z,57504
2016-09-13T10:30:24.198Z,56736
2016-09-13T10:31:35.638Z,57888
2016-09-13T10:32:46.676Z,55296
2016-09-13T10:33:57.705Z,55584
2016-09-13T10:35:08.733Z,58080
2016-09-13T10:36:19.962Z,55520
2016-09-13T10:37:31.003Z,53952
2016-09-13T10:38:42.039Z,54208
2016-09-13T10:39:53.057Z,54432
2016-09-13T10:41:04.085Z,53856
2016-09-13T10:42:15.317Z,54720
2016-09-13T10:43:26.343Z,49984
2016-09-13T10:44:37.371Z,48736
2016-09-13T10:45:48.405Z,48992
2016-09-13T10:46:59.489Z,47104
2016-09-13T10:48:10.531Z,48544
2016-09-13T10:49:21.563Z,48288
2016-09-13T10:50:32.611Z,46528
2016-09-13T10:51:43.641Z,47232
2016-09-13T10:52:54.666Z,43808
2016-09-13T10:54:05.898Z,41536
2016-09-13T10:55:16.928Z,41664
2016-09-13T10:56:27.952Z,42624
2016-09-13T10:57:38.978Z,40736
2016-09-13T10:58:50.003Z,38816
2016-09-13T11:00:01.047Z,39584
2016-09-13T11:01:12.079Z,40416
2016-09-13T11:02:23.103Z,39296
2016-09-13T11:03:34.129Z,37088
2016-09-13T11:04:45.152Z,39424
2016-09-13T11:05:56.176Z,40416
2016-09-13T11:07:07.201Z,35392
2016-09-13T11:08:18.232Z,33728
2016-09-13T11:09:29.255Z,35488
2016-09-13T11:10:40.295Z,37824
2016-09-13T11:11:51.318Z,36800
2016-09-13T11:13:02.543Z,36352
2016-09-13T11:14:13.572Z,33504
2016-09-13T11:15:24.801Z,33888
2016-09-13T11:16:35.833Z,32192
2016-09-13T11:17:47.068Z,31712
2016-09-13T11:18:58.097Z,32800
2016-09-13T11:20:09.128Z,31104
2016-09-13T11:21:20.157Z,35808
2016-09-13T11:22:31.194Z,37504
2016-09-13T11:23:42.431Z,37984
2016-09-13T11:24:53.461Z,34880
2016-09-13T11:26:04.502Z,31296
2016-09-13T11:27:15.532Z,29952
2016-09-13T11:28:26.564Z,31712
2016-09-13T11:29:37.578Z,27104
2016-09-13T11:30:48.795Z,22496
2016-09-13T11:31:59.818Z,18464
2016-09-13T11:33:10.848Z,16032
2016-09-13T11:34:22.077Z,16864
2016-09-13T11:35:33.296Z,16768
2016-09-13T11:36:44.324Z,16416
2016-09-13T11:37:55.352Z,16160
2016-09-13T11:39:06.377Z,9360
2016-09-13T11:40:17.406Z,18272
2016-09-13T11:41:28.436Z,24672
2016-09-13T11:42:39.460Z,25120
2016-09-13T11:43:50.479Z,25504
2016-09-13T11:45:01.507Z,26752
2016-09-13T11:46:12.546Z,25152
2016-09-13T11:47:23.616Z,28160
2016-09-13T11:48:34.651Z,29888
2016-09-13T11:49:45.678Z,29952
2016-09-13T11:50:56.702Z,28672
2016-09-13T11:52:07.932Z,29024
2016-09-13T11:53:18.949Z,26976
2016-09-13T11:54:29.970Z,27840
2016-09-13T11:55:41.187Z,26624
2016-09-13T11:56:52.211Z,25440
2016-09-13T11:58:03.239Z,25728
2016-09-13T11:59:14.264Z,25344
2016-09-13T12:00:25.318Z,25120
2016-09-13T12:01:36.348Z,25376
2016-09-13T12:02:47.375Z,21440
2016-09-13T12:03:58.397Z,8472
2016-09-13T12:05:09.623Z,25216
2016-09-13T12:06:20.652Z,24416
2016-09-13T12:07:31.677Z,24672
2016-09-13T12:08:42.703Z,24608
2016-09-13T12:09:53.726Z,24096
2016-09-13T12:11:04.745Z,22336
2016-09-13T12:12:15.766Z,21472
2016-09-13T12:13:26.790Z,20864
2016-09-13T12:14:37.816Z,20000
2016-09-13T12:15:49.041Z,19264
2016-09-13T12:17:00.077Z,18752
2016-09-13T12:18:11.099Z,18240
2016-09-13T12:19:22.121Z,13056
2016-09-13T12:20:33.141Z,14560
2016-09-13T12:21:44.165Z,16640
2016-09-13T12:22:55.197Z,7376
2016-09-13T12:24:06.424Z,10848
2016-09-13T12:25:17.435Z,7420
2016-09-13T12:26:28.458Z,6336
2016-09-13T12:27:39.885Z,7812
2016-09-13T12:28:50.916Z,9248
2016-09-13T12:30:02.139Z,7332
2016-09-13T12:31:13.166Z,8176
2016-09-13T12:32:24.192Z,8772
2016-09-13T12:33:35.209Z,7136
2016-09-13T12:34:46.225Z,6476
2016-09-13T12:35:57.449Z,6312
2016-09-13T12:37:08.465Z,6304
2016-09-13T12:38:19.489Z,6360
2016-09-13T12:39:30.918Z,5992
2016-09-13T12:40:41.949Z,6776
2016-09-13T12:41:52.975Z,7256
2016-09-13T12:43:03.995Z,5676
2016-09-13T12:44:15.013Z,5892
2016-09-13T12:45:26.232Z,5344
2016-09-13T12:46:37.252Z,5516
2016-09-13T12:47:48.318Z,5528
2016-09-13T12:48:59.332Z,5672
2016-09-13T12:50:10.354Z,5560
2016-09-13T12:51:21.374Z,5548
2016-09-13T12:52:32.399Z,5520
2016-09-13T12:53:43.407Z,5608
2016-09-13T12:54:54.440Z,5504
2016-09-13T12:56:05.452Z,5456
2016-09-13T12:57:16.470Z,5528
2016-09-13T12:58:27.690Z,5436
2016-09-13T12:59:38.716Z,5396
2016-09-13T13:00:49.747Z,5368
2016-09-13T13:02:00.767Z,5360
2016-09-13T13:03:11.780Z,5368
2016-09-13T13:04:22.803Z,5340
2016-09-13T13:05:33.817Z,5316
2016-09-13T13:06:44.842Z,5364
2016-09-13T13:07:55.854Z,5312
2016-09-13T13:09:06.868Z,5300
2016-09-13T13:10:18.088Z,5304
2016-09-13T13:11:29.107Z,5228
2016-09-13T13:12:40.126Z,5244
2016-09-13T13:13:51.151Z,5232
2016-09-13T13:15:02.571Z,5580
2016-09-13T13:16:13.603Z,5432
2016-09-13T13:17:24.625Z,5352
2016-09-13T13:18:35.641Z,5272
2016-09-13T13:19:46.671Z,5204
2016-09-13T13:20:57.685Z,5332
2016-09-13T13:22:08.707Z,5284
2016-09-13T13:23:19.925Z,5236
2016-09-13T13:24:30.943Z,5296
2016-09-13T13:25:41.952Z,5492
2016-09-13T13:26:52.974Z,5524
2016-09-13T13:28:04.001Z,5300
2016-09-13T13:29:15.214Z,4996
2016-09-13T13:30:26.232Z,4988
2016-09-13T13:31:37.255Z,5072
2016-09-13T13:32:48.498Z,5212
2016-09-13T13:33:59.515Z,5080
2016-09-13T13:35:10.737Z,4784
2016-09-13T13:36:21.752Z,4844
2016-09-13T13:37:32.776Z,4912
2016-09-13T13:38:43.793Z,5044
2016-09-13T13:39:55.011Z,5204
2016-09-13T13:41:06.036Z,4948
2016-09-13T13:42:17.063Z,5020
2016-09-13T13:43:28.075Z,5124
2016-09-13T13:44:39.095Z,5272
2016-09-13T13:45:50.112Z,5184
2016-09-13T13:47:01.131Z,5024
2016-09-13T13:48:12.200Z,5096
2016-09-13T13:49:23.426Z,4968
2016-09-13T13:50:34.654Z,4932
2016-09-13T13:51:45.672Z,5584
2016-09-13T13:52:56.891Z,5440
2016-09-13T13:54:07.909Z,5652
2016-09-13T13:55:18.925Z,5964
2016-09-13T13:56:29.955Z,5864
2016-09-13T13:57:40.973Z,5836
2016-09-13T13:58:51.995Z,6108
2016-09-13T14:00:03.011Z,6192
2016-09-13T14:01:14.045Z,6120
2016-09-13T14:02:25.063Z,6236
2016-09-13T14:03:36.071Z,6204
2016-09-13T14:04:47.315Z,6388
2016-09-13T14:05:58.334Z,6384
2016-09-13T14:07:09.351Z,5644
2016-09-13T14:08:20.374Z,5848
2016-09-13T14:09:31.593Z,6216
2016-09-13T14:10:42.614Z,7516
2016-09-13T14:11:53.631Z,8036
2016-09-13T14:13:04.642Z,7496
2016-09-13T14:14:15.657Z,6712
2016-09-13T14:15:26.670Z,6388
2016-09-13T14:16:37.675Z,5668
2016-09-13T14:17:48.692Z,6420
2016-09-13T14:19:00.106Z,4824
2016-09-13T14:20:11.335Z,4268
2016-09-13T14:21:22.352Z,3992
2016-09-13T14:22:33.358Z,3796
2016-09-13T14:23:44.582Z,3700
2016-09-13T14:24:55.592Z,3680
2016-09-13T14:26:06.606Z,3668
2016-09-13T14:27:17.628Z,3640
2016-09-13T14:28:28.679Z,3580
2016-09-13T14:29:39.691Z,3528
2016-09-13T14:30:50.709Z,3492
2016-09-13T14:32:01.736Z,3452
2016-09-13T14:33:12.758Z,3408
2016-09-13T14:34:23.773Z,3388
2016-09-13T14:35:34.989Z,3336
2016-09-13T14:36:46.003Z,3276
2016-09-13T14:37:57.024Z,3212
2016-09-13T14:39:08.039Z,3160
2016-09-13T14:40:19.065Z,3124
2016-09-13T14:41:30.081Z,3108
2016-09-13T14:42:41.096Z,3052
2016-09-13T14:43:52.108Z,3020
2016-09-13T14:45:03.128Z,2996
2016-09-13T14:46:14.349Z,2976
2016-09-13T14:47:25.376Z,2948
2016-09-13T14:48:36.441Z,2920
2016-09-13T14:49:47.667Z,2908
2016-09-13T14:50:58.682Z,2900
2016-09-13T14:52:09.700Z,2888
2016-09-13T14:53:20.715Z,2864
2016-09-13T14:54:31.729Z,2844
2016-09-13T14:55:42.762Z,2824
2016-09-13T14:56:53.786Z,2824
2016-09-13T14:58:04.813Z,2812
2016-09-13T14:59:15.826Z,2796
2016-09-13T15:00:26.843Z,2784
2016-09-13T15:01:37.862Z,2772
2016-09-13T15:02:49.086Z,2768
2016-09-13T15:04:00.094Z,2756
2016-09-13T15:05:11.108Z,2744
2016-09-13T15:06:22.127Z,2732
2016-09-13T15:07:33.127Z,2720
2016-09-13T15:08:44.142Z,2704
2016-09-13T15:09:55.171Z,2688
2016-09-13T15:11:06.191Z,2668
2016-09-13T15:12:17.191Z,2652
2016-09-13T15:13:28.444Z,2636
2016-09-13T15:14:39.461Z,2616
2016-09-13T15:15:50.491Z,2592
2016-09-13T15:17:01.705Z,2568
2016-09-13T15:18:12.727Z,2548
2016-09-13T15:19:23.736Z,2528
2016-09-13T15:20:34.750Z,2512
2016-09-13T15:21:45.764Z,2496
2016-09-13T15:22:56.772Z,2480
2016-09-13T15:24:07.806Z,2468
2016-09-13T15:25:18.823Z,2456
2016-09-13T15:26:29.849Z,2440
2016-09-13T15:27:41.081Z,2428
2016-09-13T15:28:52.104Z,2412
2016-09-13T15:30:03.116Z,2404
2016-09-13T15:31:14.124Z,2392
2016-09-13T15:32:25.338Z,2384
2016-09-13T15:33:36.559Z,2368
2016-09-13T15:34:47.575Z,2348
2016-09-13T15:35:58.594Z,2340
2016-09-13T15:37:09.598Z,2324
2016-09-13T15:38:20.623Z,2312
2016-09-13T15:39:31.641Z,2300
2016-09-13T15:40:42.672Z,2288
2016-09-13T15:41:53.689Z,2280
2016-09-13T15:43:04.703Z,2272
2016-09-13T15:44:15.723Z,2256
2016-09-13T15:45:26.727Z,2244
2016-09-13T15:46:37.938Z,2236
2016-09-13T15:47:49.147Z,2232
2016-09-13T15:49:00.209Z,2224
2016-09-13T15:50:11.241Z,2216
2016-09-13T15:51:22.252Z,2216
2016-09-13T15:52:33.273Z,2208
2016-09-13T15:53:44.271Z,2200
2016-09-13T15:54:55.277Z,2196
2016-09-13T15:56:06.490Z,2184
2016-09-13T15:57:17.514Z,2180
2016-09-13T15:58:28.524Z,2176
2016-09-13T15:59:39.541Z,2172
2016-09-13T16:00:50.762Z,2168
2016-09-13T16:02:01.774Z,2160
2016-09-13T16:03:12.790Z,2148
2016-09-13T16:04:24.010Z,2132